createdAt,value
2018-11-03T02:01:39.062Z,12.03
2018-11-03T02:04:19.982Z,12.47
2018-11-03T02:07:01.473Z,13.23
2018-11-03T02:09:42.812Z,14.30
2018-11-03T02:12:20.703Z,10.87
2018-11-03T02:15:01.594Z,13.30
2018-11-03T02:17:40.711Z,11.77
2018-11-03T02:20:18.678Z,12.30
2018-11-03T02:22:57.474Z,12.55
2018-11-03T02:25:30.929Z,10.20
2018-11-03T02:28:04.521Z,9.40
2018-11-03T02:30:37.968Z,12.70
2018-11-03T02:33:11.065Z,10.07
2018-11-03T02:35:43.675Z,11.80
2018-11-03T02:38:20.158Z,11.70
2018-11-03T02:40:58.002Z,10.37
2018-11-03T02:43:33.907Z,9.77
2018-11-03T02:46:07.181Z,12.23
2018-11-03T02:48:39.991Z,11.47
2018-11-03T02:51:13.179Z,11.80
2018-11-03T02:53:46.899Z,11.93
2018-11-03T02:56:21.074Z,16.53
2018-11-03T02:58:54.024Z,13.00
2018-11-03T03:01:30.078Z,27.07
2018-11-03T03:04:03.163Z,14.33
2018-11-03T03:06:37.417Z,13.47
2018-11-03T03:09:10.595Z,15.00
2018-11-03T03:11:44.391Z,13.27
2018-11-03T03:14:17.805Z,14.40
2018-11-03T03:18:20.230Z,11.73
2018-11-03T03:20:52.752Z,12.20
2018-11-03T03:23:25.491Z,11.40
2018-11-03T03:25:58.090Z,11.67
2018-11-03T03:28:30.514Z,9.67
2018-11-03T03:31:04.939Z,11.65
2018-11-03T03:33:38.198Z,12.00
2018-11-03T03:36:10.536Z,10.80
2018-11-03T03:38:43.164Z,11.43
2018-11-03T03:41:15.661Z,14.23
2018-11-03T03:43:48.262Z,13.25
2018-11-03T03:46:21.076Z,11.80
2018-11-03T03:48:53.713Z,10.97
2018-11-03T03:51:26.923Z,11.40
2018-11-03T03:53:59.559Z,24.65
2018-11-03T03:56:32.470Z,37.87
2018-11-03T03:59:05.692Z,59.90
2018-11-03T04:01:38.553Z,56.93
2018-11-03T04:04:11.171Z,37.77
2018-11-03T04:06:44.434Z,37.03
2018-11-03T04:09:16.947Z,19.33
2018-11-03T05:26:43.272Z,24.32
2018-11-03T05:50:22.561Z,9.50
2018-11-03T05:52:58.289Z,15.70
2018-11-03T05:55:37.622Z,22.60
2018-11-03T05:58:11.549Z,40.53
2018-11-03T06:01:09.661Z,43.97
2018-11-03T06:03:57.357Z,48.67
2018-11-03T06:06:38.931Z,26.10
2018-11-03T06:09:16.789Z,21.27
2018-11-03T06:11:57.674Z,16.80
2018-11-03T06:14:33.257Z,12.80
2018-11-03T06:17:07.500Z,11.50
2018-11-03T06:19:43.653Z,11.73
2018-11-03T06:22:31.504Z,17.82
2018-11-03T06:25:07.067Z,34.30
2018-11-03T06:27:46.741Z,46.70
2018-11-03T06:30:26.991Z,36.07
2018-11-03T06:35:56.108Z,25.00
2018-11-03T06:38:51.902Z,23.07
2018-11-03T06:44:46.355Z,91.63
2018-11-03T06:47:45.762Z,72.50
2018-11-03T06:50:22.477Z,31.03
2018-11-03T06:52:55.612Z,25.57
2018-11-03T06:55:28.089Z,20.50
2018-11-03T06:58:01.132Z,13.87
2018-11-03T07:00:37.636Z,20.03
2018-11-03T07:03:15.151Z,36.63
2018-11-03T07:05:47.858Z,39.60
2018-11-03T07:08:20.477Z,34.15
2018-11-03T07:10:53.290Z,23.40
2018-11-03T07:13:25.816Z,23.17
2018-11-03T07:15:58.545Z,17.87
2018-11-03T07:18:31.524Z,16.97
2018-11-03T07:21:03.863Z,15.20
2018-11-03T07:23:36.216Z,14.20
2018-11-03T07:26:09.515Z,13.03
2018-11-03T07:28:41.914Z,13.57
2018-11-03T07:31:14.300Z,20.72
2018-11-03T07:33:46.730Z,15.93
2018-11-03T07:36:20.497Z,14.40
2018-11-03T07:38:53.044Z,14.23
2018-11-03T07:41:25.399Z,17.95
2018-11-03T07:43:57.902Z,57.03
2018-11-03T07:46:30.322Z,61.13
2018-11-03T07:49:02.792Z,134.40
2018-11-03T07:51:35.104Z,206.60
2018-11-03T07:54:07.509Z,139.67
2018-11-03T07:56:40.088Z,109.97
2018-11-03T07:59:12.594Z,67.83
2018-11-03T08:01:45.791Z,61.50
2018-11-03T08:04:20.720Z,57.40
2018-11-03T08:06:53.059Z,42.23
2018-11-03T08:09:25.609Z,20.40
2018-11-03T08:11:57.865Z,19.67
2018-11-03T08:14:30.620Z,19.40
2018-11-03T08:17:03.035Z,15.97
2018-11-03T08:19:35.337Z,15.13
2018-11-03T08:22:08.932Z,14.17
2018-11-03T08:24:43.319Z,15.87
2018-11-03T08:27:15.554Z,31.33
2018-11-03T08:29:48.601Z,39.03
2018-11-03T08:32:20.868Z,32.80
2018-11-03T08:34:53.136Z,42.33
2018-11-03T08:37:25.711Z,53.43
2018-11-03T08:39:58.111Z,76.87
2018-11-03T08:42:30.460Z,102.10
2018-11-03T08:45:03.600Z,104.97
2018-11-03T08:47:36.189Z,80.53
2018-11-03T08:50:14.129Z,44.23
2018-11-03T08:52:46.393Z,35.33
2018-11-03T08:55:18.812Z,22.43
2018-11-03T08:57:50.964Z,21.90
2018-11-03T09:00:23.473Z,51.73
2018-11-03T09:02:55.836Z,36.60
2018-11-03T09:05:29.364Z,32.93
2018-11-03T09:08:01.531Z,36.70
2018-11-03T09:10:34.013Z,38.53
2018-11-03T09:13:07.097Z,35.27
2018-11-03T09:15:39.779Z,26.20
2018-11-03T09:18:12.054Z,16.87
2018-11-03T09:20:44.505Z,14.67
2018-11-03T09:23:16.670Z,14.13
2018-11-03T09:25:48.957Z,17.73
2018-11-03T09:28:21.211Z,13.67
2018-11-03T09:30:53.987Z,12.83
2018-11-03T09:33:26.191Z,13.03
2018-11-03T09:35:59.775Z,13.27
2018-11-03T09:38:32.966Z,12.50
2018-11-03T09:41:06.583Z,12.97
2018-11-03T09:43:39.119Z,13.87
2018-11-03T09:46:12.050Z,14.50
2018-11-03T09:48:44.781Z,13.13
2018-11-03T09:51:17.073Z,13.60
2018-11-03T09:53:50.185Z,13.67
2018-11-03T09:56:23.129Z,14.37
2018-11-03T09:58:55.715Z,14.00
2018-11-03T10:01:28.290Z,14.00
2018-11-03T10:04:01.060Z,14.53
2018-11-03T10:06:34.479Z,14.40
2018-11-03T10:09:07.884Z,13.63
2018-11-03T10:11:40.046Z,14.83
2018-11-03T10:14:13.351Z,13.83
2018-11-03T10:16:45.775Z,14.93
2018-11-03T10:19:18.256Z,16.53
2018-11-03T10:21:50.736Z,14.60
2018-11-03T10:24:23.167Z,15.93
2018-11-03T10:26:56.948Z,14.33
2018-11-03T10:29:29.426Z,17.43
2018-11-03T10:32:01.855Z,20.33
2018-11-03T10:34:34.060Z,16.97
2018-11-03T10:37:06.395Z,16.33
2018-11-03T10:39:39.905Z,17.57
2018-11-03T10:42:12.672Z,17.33
2018-11-03T10:44:44.939Z,17.53
2018-11-03T10:47:17.310Z,21.42
2018-11-03T10:49:57.440Z,22.10
2018-11-03T10:52:31.190Z,73.73
2018-11-03T10:55:03.885Z,116.80
2018-11-03T10:57:38.147Z,181.75
2018-11-03T11:00:19.517Z,136.60
2018-11-03T11:02:56.403Z,86.60
2018-11-03T11:05:33.689Z,48.23
2018-11-03T11:08:11.015Z,26.50
2018-11-03T11:10:48.063Z,23.27
2018-11-03T11:13:23.749Z,14.27
2018-11-03T11:15:57.942Z,15.83
2018-11-03T11:18:30.830Z,19.77
2018-11-03T11:21:04.042Z,20.50
2018-11-03T11:23:36.463Z,16.77
2018-11-03T11:26:09.051Z,18.33
2018-11-03T11:28:41.554Z,16.27
2018-11-03T11:31:14.448Z,17.97
2018-11-03T11:33:47.171Z,17.53
2018-11-03T11:36:19.507Z,20.30
2018-11-03T11:38:52.376Z,24.30
2018-11-03T11:41:25.316Z,23.97
2018-11-03T11:43:57.883Z,63.90
2018-11-03T11:46:30.433Z,31.17
2018-11-03T11:49:02.856Z,23.47
2018-11-03T11:51:36.446Z,17.77
2018-11-03T11:54:09.025Z,19.90
2018-11-03T11:56:41.330Z,28.07
2018-11-03T11:59:16.240Z,45.80
2018-11-03T12:01:49.012Z,42.77
2018-11-03T12:04:21.425Z,22.27
2018-11-03T12:06:54.672Z,22.23
2018-11-03T12:09:32.653Z,13.97
2018-11-03T12:12:09.999Z,16.70
2018-11-03T12:17:51.998Z,17.80
2018-11-03T12:20:34.769Z,17.83
2018-11-03T12:23:19.338Z,32.10
2018-11-03T12:26:00.433Z,22.40
2018-11-03T12:28:38.446Z,23.23
2018-11-03T12:31:17.895Z,22.30
2018-11-03T12:33:54.460Z,24.87
2018-11-03T12:36:31.202Z,22.53
2018-11-03T12:39:08.220Z,23.10
2018-11-03T12:41:43.198Z,27.10
2018-11-03T12:44:17.813Z,24.30
2018-11-03T12:46:54.505Z,21.67
2018-11-03T12:49:28.140Z,18.87
2018-11-03T12:52:01.880Z,19.83
2018-11-03T12:54:34.772Z,22.42
2018-11-03T12:57:07.714Z,28.53
2018-11-03T12:59:40.293Z,21.87
2018-11-03T13:02:13.248Z,22.30
2018-11-03T13:04:46.438Z,21.20
2018-11-03T13:07:19.822Z,24.00
2018-11-03T13:09:54.238Z,19.57
2018-11-03T13:12:27.308Z,17.73
2018-11-03T13:14:59.733Z,23.10
2018-11-03T13:17:32.292Z,18.57
2018-11-03T13:20:04.746Z,13.37
2018-11-03T13:22:38.636Z,20.13
2018-11-03T13:25:13.091Z,21.23
2018-11-03T13:27:52.479Z,19.50
2018-11-03T13:30:29.720Z,19.43
2018-11-03T13:33:02.259Z,21.43
2018-11-03T13:35:34.984Z,17.70
2018-11-03T13:38:07.949Z,21.30
2018-11-03T13:40:47.435Z,23.87
2018-11-03T13:43:22.510Z,19.27
2018-11-03T13:45:58.794Z,25.50
2018-11-03T13:51:20.817Z,27.20
2018-11-03T13:53:55.134Z,19.27
2018-11-03T13:56:27.552Z,19.97
2018-11-03T13:58:59.923Z,20.83
2018-11-03T14:04:47.942Z,24.30
2018-11-03T14:07:20.835Z,19.80
2018-11-03T14:09:56.603Z,19.30
2018-11-03T14:12:29.550Z,15.77
2018-11-03T14:15:02.194Z,13.63
2018-11-03T14:17:35.244Z,11.57
2018-11-03T14:20:08.943Z,14.77
2018-11-03T14:22:41.751Z,14.97
2018-11-03T14:25:15.560Z,18.13
2018-11-03T14:27:50.058Z,17.12
2018-11-03T14:30:22.764Z,23.20
2018-11-03T14:32:55.437Z,16.83
2018-11-03T14:35:27.966Z,14.83
2018-11-03T14:38:00.801Z,15.33
2018-11-03T14:45:00.932Z,19.43
2018-11-03T16:06:42.299Z,12.03
2018-11-03T16:39:36.644Z,13.97
2018-11-03T16:56:09.656Z,7.20
2018-11-03T18:40:26.203Z,4.73
2018-11-03T18:59:29.750Z,6.40
2018-11-03T19:02:14.271Z,5.10
2018-11-03T19:05:01.228Z,4.23
2018-11-03T19:10:34.764Z,5.00
2018-11-03T19:13:30.425Z,6.00
2018-11-03T19:16:22.128Z,5.23
2018-11-03T19:19:19.705Z,6.20
2018-11-03T20:00:50.179Z,5.77
2018-11-03T20:07:17.577Z,6.80
2018-11-03T20:39:54.129Z,4.70
2018-11-03T22:29:28.343Z,8.27
2018-11-03T23:49:50.445Z,6.83
